Share

Nis, Serbia

Nis (LYNI) Elev 663 ft | 43.33 °N, 21.90 °E | Change Station

Current weather conditions updated 27 minutes ago

Mostly Cloudy
Mostly Cloudy
50 °F
Feels Like 50 °F
N
7
Wind Variable Wind from ESE
Sunrise 5:44 AM
Sunset 7:19 PM
Moon Waning Gibbous

Today is forecast to be Warmer than yesterday. Light rain.

Pressure 29.68 in
Visibility 6.2 miles
Clouds Scattered Clouds 1700 ft
Mostly Cloudy 3000 ft
Dew Point 45 °F
Humidity 82%
Rainfall 0.00 in
Snow Depth Not available.
UV 5 out of 16
Pollen Not available.
Air Quality Not available.
Flu Activity Not available.
METAR LYNI 191030Z 12006KT 080V160 9999 SCT017 BKN030 10/07 Q1005

More Conditions Fewer Conditions

Pressure 29.68 in
Visibility 6.2 miles
Clouds Scattered Clouds 1700 ft
Mostly Cloudy 3000 ft
Dew Point 45 °F
Humidity 82%
Rainfall 0.00 in
Snow Depth Not available.
UV 5 out of 16
Pollen Not available.
Air Quality Not available.
Flu Activity Not available.
METAR LYNI 191030Z 12006KT 080V160 9999 SCT017 BKN030 10/07 Q1005

More Conditions Fewer Conditions

10-Day Weather Forecast

Almanac

Astronomy

Apr. 19, 2014 Rise Set
Actual Time 5:44 AM CEST 7:19 PM CEST
Civil Twilight 5:14 AM CEST 7:49 PM CEST
Nautical Twilight 4:37 AM CEST 8:26 PM CEST
Astronomical Twilight 3:58 AM CEST 9:05 PM CEST
Moon 11:47 PM CEST 8:40 AM CEST
Length of Visible Light 14h 35m
Length of Day
13h 35m
Tomorrow will be 2m 47s longer.
Waning Gibbous, 81% of the Moon is Illuminated
Today
Waning Gibbous
Apr 22
Last Quarter
Apr 29
New
May 6
First Quarter
May 14
Full

Community

  • Bleeding Hearts
    Bleeding Hearts
  • Sunset Silhouettes
    Sunset Silhouettes
  • FL sunset Perico Isle
    FL sunset Perico Isle
  • Cloudy spring view
    Cloudy spring view
  • Old barn
    Old barn

WunderPhotos

Upload Photos

1,702,681 photos uploaded!

WunderBlogs® & News

Nearby

Snow Depth

Not available.

Coastal Water Temperatures

Place Temperature
No Stations Reporting

Earthquake Activity

City Distance Mag. Time & Date
No recent earthquake activity has been reported nearby.
Minimum magnitude displayed is 2.5.

Nearby Weather Stations

Station Location Temp. Windchill Dew Point Humidity Wind Precip. Elev Updated Type
Knjazevac 46.8 °F 47 °F 45 °F 94% SE  at  0.0 mph 0.00 in / hr 827 ft 12:50 PM CEST Normal

Show More Stations Show Fewer Stations

What do you think?

We're not finished. Please let us know what you like, what you don't like, and what you are still missing.